Time;durP1;ratioP1;P1;durP2;ratioP2;P2;SDS_P1;SDS_P2;PMS_P1;PMS_P2;Temp;Humidity;BMP_temperature;BMP_pressure;BME280_temperature;BME280_humidity;BME280_pressure;Samples;Min_cycle;Max_cycle;Signal;HPM_P1;HPM_P2
2023/04/29 00:01:03;;;;;;;46.80;29.80;;;10.20;99.90;;;;;;5035115;28;20036;-70
2023/04/29 00:03:31;;;;;;;45.38;28.63;;;10.20;99.90;;;;;;5035050;28;20106;-70
2023/04/29 00:05:57;;;;;;;43.70;29.40;;;10.20;99.90;;;;;;5018559;28;20049;-70
2023/04/29 00:08:23;;;;;;;44.67;28.73;;;10.20;99.90;;;;;;5034960;28;20045;-70
2023/04/29 00:10:48;;;;;;;43.80;30.83;;;10.20;99.90;;;;;;5018519;28;20102;-69
2023/04/29 00:13:14;;;;;;;43.58;30.00;;;10.20;99.90;;;;;;5034862;28;20056;-70
2023/04/29 00:15:41;;;;;;;44.63;29.52;;;10.10;99.90;;;;;;5034912;28;20052;-70
2023/04/29 00:18:08;;;;;;;44.45;29.52;;;10.10;99.90;;;;;;5034815;28;20044;-70
2023/04/29 00:20:34;;;;;;;46.95;29.92;;;10.10;99.90;;;;;;5018420;28;20044;-70
2023/04/29 00:22:59;;;;;;;51.17;29.48;;;10.10;99.90;;;;;;5034856;28;20029;-70
2023/04/29 00:25:25;;;;;;;41.60;27.65;;;10.10;99.90;;;;;;5034866;28;20115;-70
2023/04/29 00:27:51;;;;;;;40.30;28.08;;;10.10;99.90;;;;;;5034809;28;20387;-70
2023/04/29 00:30:17;;;;;;;41.58;27.42;;;10.00;99.90;;;;;;5018389;28;20098;-70
2023/04/29 00:32:43;;;;;;;39.60;27.45;;;10.00;99.90;;;;;;5018633;28;20405;-70
2023/04/29 00:35:09;;;;;;;45.78;28.85;;;10.00;99.90;;;;;;5034722;28;20059;-70
2023/04/29 00:37:35;;;;;;;42.20;27.90;;;10.00;99.90;;;;;;5034952;28;20037;-70
2023/04/29 00:40:01;;;;;;;36.30;25.33;;;10.00;99.90;;;;;;5037920;28;20497;-70
2023/04/29 00:42:28;;;;;;;37.58;26.92;;;10.00;99.90;;;;;;5038510;28;20067;-70
2023/04/29 00:44:53;;;;;;;37.83;26.20;;;10.00;99.90;;;;;;5022218;28;20511;-70
2023/04/29 00:47:19;;;;;;;35.20;24.60;;;10.00;99.90;;;;;;5038282;28;20123;-70
2023/04/29 00:49:45;;;;;;;42.33;26.77;;;10.00;99.90;;;;;;5038410;28;20124;-70
2023/04/29 00:52:12;;;;;;;37.63;25.83;;;10.00;99.90;;;;;;5038348;28;20037;-70
2023/04/29 00:54:38;;;;;;;40.50;25.27;;;10.00;99.90;;;;;;5038367;28;20123;-70
2023/04/29 00:57:05;;;;;;;37.88;26.65;;;10.00;99.90;;;;;;5038238;28;20514;-70
2023/04/29 00:59:32;;;;;;;38.63;26.60;;;10.00;99.90;;;;;;5038436;28;20079;-70
2023/04/29 01:02:01;;;;;;;35.22;25.67;;;9.90;99.90;;;;;;5038195;28;20044;-70
2023/04/29 01:04:26;;;;;;;38.78;26.13;;;10.00;99.90;;;;;;5038148;28;20045;-70
2023/04/29 01:07:16;;;;;;;37.97;26.77;;;9.90;99.90;;;;;;5038004;28;20045;-70
2023/04/29 01:10:00;;;;;;;45.10;27.23;;;10.00;99.90;;;;;;5038006;28;20076;-70
2023/04/29 01:12:35;;;;;;;40.28;27.38;;;9.90;99.90;;;;;;5037993;28;20047;-69
2023/04/29 01:15:14;;;;;;;40.15;29.10;;;9.90;99.90;;;;;;5037905;28;20493;-70
2023/04/29 01:17:43;;;;;;;41.35;27.85;;;9.90;99.90;;;;;;5037876;28;20041;-70
2023/04/29 01:20:10;;;;;;;39.85;26.70;;;9.90;99.90;;;;;;5037808;28;20037;-70
2023/04/29 01:22:38;;;;;;;42.40;28.30;;;9.90;99.90;;;;;;5037786;28;20041;-70
2023/04/29 01:25:05;;;;;;;42.03;28.65;;;9.90;99.90;;;;;;5037747;28;20529;-70
2023/04/29 01:27:36;;;;;;;42.95;27.70;;;9.90;99.90;;;;;;5037650;28;20044;-70
2023/04/29 01:30:06;;;;;;;43.55;28.75;;;9.90;99.90;;;;;;5037969;28;20078;-70
2023/04/29 01:32:59;;;;;;;44.80;28.77;;;9.90;99.90;;;;;;5037599;28;20127;-70
2023/04/29 01:36:01;;;;;;;38.92;26.48;;;9.90;99.90;;;;;;5037512;28;20560;-70
2023/04/29 01:38:52;;;;;;;41.78;27.00;;;9.90;99.90;;;;;;5037450;28;20044;-70
2023/04/29 01:41:35;;;;;;;46.00;27.80;;;9.90;99.90;;;;;;5020934;28;20091;-70
2023/04/29 01:44:03;;;;;;;46.08;26.70;;;9.90;99.90;;;;;;5037449;28;20040;-70
2023/04/29 01:46:30;;;;;;;45.92;27.30;;;9.80;99.90;;;;;;5037176;28;20408;-70
2023/04/29 01:48:55;;;;;;;41.58;26.98;;;9.90;99.90;;;;;;5037347;28;20044;-70
2023/04/29 01:51:21;;;;;;;38.13;25.95;;;9.90;99.90;;;;;;5037321;28;20033;-70
2023/04/29 01:53:47;;;;;;;37.95;25.98;;;9.90;99.90;;;;;;5037233;28;20461;-70
2023/04/29 01:56:12;;;;;;;41.17;24.98;;;9.90;99.90;;;;;;5037194;28;20037;-70
2023/04/29 01:58:38;;;;;;;40.72;23.38;;;9.90;99.90;;;;;;5037350;28;20037;-70
2023/04/29 02:01:04;;;;;;;38.55;23.77;;;9.80;99.90;;;;;;5037089;28;20071;-70
2023/04/29 02:03:29;;;;;;;34.78;22.30;;;9.80;99.90;;;;;;5037026;28;20040;-70
2023/04/29 02:05:56;;;;;;;29.65;22.65;;;9.80;99.90;;;;;;5036947;28;20051;-70
2023/04/29 02:08:22;;;;;;;36.35;23.40;;;9.90;99.90;;;;;;5036873;28;20126;-70
2023/04/29 02:10:58;;;;;;;36.60;21.55;;;9.80;99.90;;;;;;5036909;28;20091;-70
2023/04/29 02:13:24;;;;;;;36.60;21.58;;;9.90;99.90;;;;;;5036809;28;20419;-70
2023/04/29 02:15:50;;;;;;;30.10;20.40;;;9.80;99.90;;;;;;5037063;28;20517;-70
2023/04/29 02:18:15;;;;;;;35.03;20.58;;;9.80;99.90;;;;;;5037027;28;20036;-70
2023/04/29 02:20:41;;;;;;;33.53;21.45;;;9.80;99.90;;;;;;5036671;28;20562;-70
2023/04/29 02:23:07;;;;;;;33.55;19.83;;;9.80;99.90;;;;;;5036572;28;20051;-70
2023/04/29 02:25:33;;;;;;;28.20;20.33;;;9.80;99.90;;;;;;5036646;28;20037;-70
2023/04/29 02:27:59;;;;;;;30.35;20.08;;;9.80;99.90;;;;;;5036499;28;20037;-70
2023/04/29 02:30:24;;;;;;;30.42;19.85;;;9.80;99.90;;;;;;5036517;28;20045;-70
2023/04/29 02:32:50;;;;;;;27.80;19.98;;;9.80;99.90;;;;;;5036473;28;20090;-70
2023/04/29 02:35:16;;;;;;;29.58;19.77;;;9.80;99.90;;;;;;5036403;28;20040;-70
2023/04/29 02:37:41;;;;;;;25.27;18.33;;;9.80;99.90;;;;;;5019876;28;20132;-69
2023/04/29 02:40:07;;;;;;;26.95;18.77;;;9.80;99.90;;;;;;5036327;28;20044;-69
2023/04/29 02:42:33;;;;;;;32.55;19.88;;;9.70;99.90;;;;;;5036486;28;20112;-70
2023/04/29 02:44:58;;;;;;;35.45;20.20;;;9.80;99.90;;;;;;5036572;28;20083;-70
2023/04/29 02:47:24;;;;;;;33.22;19.95;;;9.80;99.90;;;;;;5036370;28;20095;-69
2023/04/29 02:49:50;;;;;;;30.95;19.90;;;9.80;99.90;;;;;;5036181;28;20588;-70
2023/04/29 02:52:18;;;;;;;33.65;20.10;;;9.70;99.90;;;;;;5036104;28;20041;-70
2023/04/29 02:54:44;;;;;;;34.10;20.13;;;9.70;99.90;;;;;;5019522;28;20041;-70
2023/04/29 02:57:09;;;;;;;31.65;20.42;;;9.70;99.90;;;;;;5035925;28;20048;-70
2023/04/29 02:59:35;;;;;;;28.52;20.05;;;9.70;99.90;;;;;;5035971;28;20033;-70
2023/04/29 03:02:01;;;;;;;32.45;20.08;;;9.70;99.90;;;;;;5035571;28;20045;-70
2023/04/29 03:04:27;;;;;;;31.15;20.85;;;9.70;99.90;;;;;;5036149;28;20425;-70
2023/04/29 03:06:55;;;;;;;30.90;19.83;;;9.70;99.90;;;;;;5053860;28;20504;-70
2023/04/29 03:09:22;;;;;;;25.50;18.63;;;9.60;99.90;;;;;;5035779;28;20123;-70
2023/04/29 03:11:48;;;;;;;28.73;18.83;;;9.70;99.90;;;;;;5035727;28;20049;-70
2023/04/29 03:14:14;;;;;;;30.15;20.48;;;9.70;99.90;;;;;;5035616;28;20041;-70
2023/04/29 03:16:39;;;;;;;25.38;19.02;;;9.60;99.90;;;;;;5035949;28;20091;-70
2023/04/29 03:19:05;;;;;;;29.95;20.17;;;9.70;99.90;;;;;;5035918;28;20041;-70
2023/04/29 03:21:31;;;;;;;32.45;20.23;;;9.70;99.90;;;;;;5035823;28;20490;-70
2023/04/29 03:23:57;;;;;;;33.22;20.02;;;9.70;99.90;;;;;;5035517;28;20049;-70
2023/04/29 03:26:23;;;;;;;30.55;18.85;;;9.70;99.90;;;;;;5035396;28;20043;-70
2023/04/29 03:28:49;;;;;;;30.38;20.55;;;9.60;99.90;;;;;;5035705;28;20405;-70
2023/04/29 03:31:15;;;;;;;37.28;20.25;;;9.70;99.90;;;;;;5035453;28;20036;-70
2023/04/29 03:33:41;;;;;;;32.22;20.60;;;9.60;99.90;;;;;;5035342;28;20044;-70
2023/04/29 03:36:07;;;;;;;31.55;20.45;;;9.60;99.90;;;;;;5035641;28;20056;-70
2023/04/29 03:38:33;;;;;;;28.90;19.90;;;9.60;99.90;;;;;;5035290;28;20485;-70
2023/04/29 03:40:59;;;;;;;32.55;22.20;;;9.50;99.90;;;;;;5018841;28;20082;-70
2023/04/29 03:43:25;;;;;;;26.58;19.73;;;9.50;99.90;;;;;;5035345;28;20033;-70
2023/04/29 03:45:51;;;;;;;31.30;21.73;;;9.50;99.90;;;;;;5035430;28;20044;-69
2023/04/29 03:48:17;;;;;;;36.78;22.08;;;9.50;99.90;;;;;;5035121;28;20497;-70
2023/04/29 03:50:43;;;;;;;36.30;22.77;;;9.50;99.90;;;;;;5035174;28;20040;-70
2023/04/29 03:53:08;;;;;;;35.22;21.67;;;9.50;99.90;;;;;;5035161;28;20045;-70
2023/04/29 03:55:34;;;;;;;39.33;23.33;;;9.50;99.90;;;;;;5018762;28;20037;-70
2023/04/29 03:58:00;;;;;;;35.65;21.70;;;9.40;99.90;;;;;;5035006;28;20036;-70
2023/04/29 04:00:25;;;;;;;34.25;22.65;;;9.40;99.90;;;;;;5035143;28;20036;-70
2023/04/29 04:02:51;;;;;;;32.88;21.33;;;9.40;99.90;;;;;;5035065;28;20033;-70
2023/04/29 04:05:21;;;;;;;36.83;23.42;;;9.40;99.90;;;;;;5035087;28;20045;-70
2023/04/29 04:07:46;;;;;;;38.35;23.65;;;9.40;99.90;;;;;;5034917;28;20064;-70
2023/04/29 04:10:12;;;;;;;37.15;22.70;;;9.40;99.90;;;;;;5035051;28;20044;-70
2023/04/29 04:12:38;;;;;;;34.65;22.40;;;9.40;99.90;;;;;;5019429;28;20041;-70
2023/04/29 04:15:04;;;;;;;32.80;22.10;;;9.40;99.90;;;;;;5039015;28;20041;-70
2023/04/29 04:17:29;;;;;;;35.75;23.05;;;9.40;99.90;;;;;;5038954;28;20123;-70
2023/04/29 04:19:55;;;;;;;34.72;22.05;;;9.40;99.90;;;;;;5039295;28;20072;-70
2023/04/29 04:22:21;;;;;;;36.75;20.52;;;9.40;99.90;;;;;;5038922;28;20516;-70
2023/04/29 04:24:46;;;;;;;33.53;22.23;;;9.40;99.90;;;;;;5038905;28;20041;-70
2023/04/29 04:27:12;;;;;;;31.60;20.70;;;9.40;99.90;;;;;;5039100;28;20092;-70
2023/04/29 04:29:38;;;;;;;31.45;19.58;;;9.40;99.90;;;;;;5038809;28;20552;-70
2023/04/29 04:32:04;;;;;;;31.17;19.77;;;9.40;99.90;;;;;;5038979;28;20060;-70
2023/04/29 04:34:29;;;;;;;30.67;19.20;;;9.30;99.90;;;;;;5038735;28;20524;-70
2023/04/29 04:36:55;;;;;;;27.33;17.73;;;9.40;99.90;;;;;;5038888;28;20044;-70
2023/04/29 04:39:21;;;;;;;31.10;18.77;;;9.40;99.90;;;;;;5038644;28;20037;-70
2023/04/29 04:41:46;;;;;;;27.58;17.75;;;9.40;99.90;;;;;;5038585;28;20041;-70
2023/04/29 04:44:13;;;;;;;29.30;18.38;;;9.40;99.90;;;;;;5038601;28;20044;-70
2023/04/29 04:46:38;;;;;;;30.25;17.75;;;9.40;99.90;;;;;;5038310;28;20421;-70
2023/04/29 04:49:04;;;;;;;25.25;16.27;;;9.40;99.90;;;;;;5038465;28;20091;-70
2023/04/29 04:51:30;;;;;;;27.13;17.27;;;9.40;99.90;;;;;;5038415;28;20045;-70
2023/04/29 04:53:56;;;;;;;29.00;17.33;;;9.40;99.90;;;;;;5038249;28;20036;-70
2023/04/29 04:56:21;;;;;;;30.48;16.15;;;9.40;99.90;;;;;;5038234;28;20037;-70
2023/04/29 04:58:47;;;;;;;31.80;16.52;;;9.40;99.90;;;;;;5056091;28;20044;-70
2023/04/29 05:01:13;;;;;;;30.85;16.20;;;9.40;99.90;;;;;;5038206;28;20075;-70
2023/04/29 05:03:38;;;;;;;26.15;15.75;;;9.40;99.90;;;;;;5038244;28;20044;-70
2023/04/29 05:06:04;;;;;;;28.73;16.08;;;9.50;99.90;;;;;;5038167;28;20124;-70
2023/04/29 05:08:30;;;;;;;28.42;15.95;;;9.40;99.90;;;;;;5038068;28;20051;-70
2023/04/29 05:10:57;;;;;;;28.40;15.00;;;9.40;99.90;;;;;;5038012;28;20128;-70
2023/04/29 05:13:24;;;;;;;31.45;15.90;;;9.50;99.90;;;;;;5037905;28;20045;-70
2023/04/29 05:15:50;;;;;;;22.50;14.82;;;9.50;99.90;;;;;;5037934;28;20501;-70
2023/04/29 05:18:16;;;;;;;29.50;16.05;;;9.50;99.90;;;;;;5037872;28;20040;-70
2023/04/29 05:20:41;;;;;;;29.95;15.73;;;9.50;99.90;;;;;;5038065;28;20032;-70
2023/04/29 05:23:07;;;;;;;29.27;16.58;;;9.40;99.90;;;;;;5037870;28;20072;-70
2023/04/29 05:25:33;;;;;;;27.25;15.60;;;9.50;99.90;;;;;;5037400;28;20045;-70
2023/04/29 05:27:59;;;;;;;26.33;15.52;;;9.50;99.90;;;;;;5037708;28;20489;-71
2023/04/29 05:30:24;;;;;;;26.05;15.35;;;9.50;99.90;;;;;;5037754;28;20041;-70
2023/04/29 05:32:50;;;;;;;24.90;15.27;;;9.50;99.90;;;;;;5037991;28;20099;-70
2023/04/29 05:35:16;;;;;;;26.02;15.15;;;9.50;99.90;;;;;;5037511;28;20444;-70
2023/04/29 05:37:41;;;;;;;31.85;15.65;;;9.50;99.90;;;;;;5037706;28;20033;-70
2023/04/29 05:40:08;;;;;;;21.83;13.80;;;9.50;99.90;;;;;;5037544;28;20397;-70
2023/04/29 05:42:34;;;;;;;21.38;13.93;;;9.60;99.90;;;;;;5037496;28;20041;-70
2023/04/29 05:44:59;;;;;;;22.45;13.85;;;9.60;99.90;;;;;;5037381;28;20128;-70
2023/04/29 05:47:25;;;;;;;23.58;13.50;;;9.60;99.90;;;;;;5037224;28;20044;-69
2023/04/29 05:49:51;;;;;;;24.85;14.55;;;9.60;99.90;;;;;;5037340;28;20049;-69
2023/04/29 05:52:16;;;;;;;26.23;13.90;;;9.60;99.90;;;;;;5037229;28;20056;-70
2023/04/29 05:54:42;;;;;;;24.92;12.85;;;9.70;99.90;;;;;;5037319;28;20041;-70
2023/04/29 05:57:08;;;;;;;21.65;12.80;;;9.60;99.90;;;;;;5037124;28;20456;-69
2023/04/29 05:59:33;;;;;;;20.75;12.73;;;9.70;99.90;;;;;;5037202;28;20033;-70
2023/04/29 06:01:59;;;;;;;22.67;13.45;;;9.70;99.90;;;;;;5037389;28;20048;-70
2023/04/29 06:04:26;;;;;;;22.40;12.20;;;9.70;99.90;;;;;;5037034;28;20084;-71
2023/04/29 06:06:55;;;;;;;21.33;12.73;;;9.80;99.90;;;;;;5020797;28;20130;-71
2023/04/29 06:09:21;;;;;;;20.98;13.60;;;9.80;99.90;;;;;;5036926;28;20409;-71
2023/04/29 06:11:46;;;;;;;19.77;13.25;;;9.80;99.90;;;;;;5036935;28;20033;-71
2023/04/29 06:14:12;;;;;;;21.70;12.45;;;9.90;99.90;;;;;;5037038;28;20052;-71
2023/04/29 06:16:39;;;;;;;20.17;12.82;;;9.90;99.90;;;;;;5036879;28;20045;-69
2023/04/29 06:19:05;;;;;;;19.98;12.50;;;9.90;99.90;;;;;;5036755;28;20040;-69
2023/04/29 06:21:31;;;;;;;18.10;12.55;;;10.00;99.90;;;;;;5036720;28;20044;-69
2023/04/29 06:23:57;;;;;;;17.20;12.38;;;10.00;99.90;;;;;;5036943;28;20131;-69
2023/04/29 06:26:23;;;;;;;15.45;11.55;;;10.00;99.90;;;;;;5036798;28;20516;-69
2023/04/29 06:28:48;;;;;;;17.88;11.35;;;10.10;99.90;;;;;;5036616;28;20045;-69
2023/04/29 06:31:15;;;;;;;17.38;11.98;;;10.10;99.90;;;;;;5036513;28;20040;-69
2023/04/29 06:33:41;;;;;;;18.60;11.35;;;10.10;99.90;;;;;;5036418;28;20044;-69
2023/04/29 06:36:07;;;;;;;20.25;11.40;;;10.20;99.90;;;;;;5035593;28;20041;-69
2023/04/29 06:38:32;;;;;;;19.85;11.65;;;10.20;99.90;;;;;;5036529;28;20103;-69
2023/04/29 06:40:59;;;;;;;17.27;11.18;;;10.30;99.90;;;;;;5036360;28;20045;-69
2023/04/29 06:43:29;;;;;;;18.60;10.43;;;10.40;99.90;;;;;;5036579;28;20052;-69
2023/04/29 06:45:54;;;;;;;18.63;11.13;;;10.40;99.90;;;;;;5036401;28;20041;-69
2023/04/29 06:48:20;;;;;;;17.27;10.52;;;10.50;99.90;;;;;;5036138;28;20416;-69
2023/04/29 06:50:56;;;;;;;16.77;11.45;;;10.50;99.90;;;;;;5036228;28;20498;-69
2023/04/29 06:53:23;;;;;;;19.33;11.10;;;10.60;99.90;;;;;;5019751;28;20045;-69
2023/04/29 06:55:49;;;;;;;19.42;10.63;;;10.70;99.90;;;;;;5036062;28;20045;-69
2023/04/29 06:58:15;;;;;;;17.05;10.55;;;10.80;99.90;;;;;;5036228;28;20028;-69
2023/04/29 07:00:46;;;;;;;16.60;10.10;;;10.90;99.90;;;;;;5035912;28;20489;-69
2023/04/29 07:03:12;;;;;;;19.80;9.90;;;11.00;99.90;;;;;;5036011;28;20040;-69
2023/04/29 07:05:46;;;;;;;14.63;10.38;;;11.00;99.90;;;;;;5036111;28;20135;-69
2023/04/29 07:08:12;;;;;;;11.48;9.02;;;11.10;99.90;;;;;;5036019;28;20048;-69
2023/04/29 07:10:38;;;;;;;13.30;9.35;;;11.20;99.90;;;;;;5035763;28;20408;-69
2023/04/29 07:13:04;;;;;;;16.30;9.85;;;11.20;99.90;;;;;;5019406;28;20124;-69
2023/04/29 07:15:35;;;;;;;15.90;8.68;;;11.20;99.90;;;;;;5035654;28;20517;-69
2023/04/29 07:18:02;;;;;;;16.48;9.95;;;11.30;99.90;;;;;;5035706;28;20041;-69
2023/04/29 07:20:28;;;;;;;14.00;9.35;;;11.40;99.90;;;;;;5035662;28;20044;-69
2023/04/29 07:22:54;;;;;;;17.45;9.73;;;11.40;99.90;;;;;;5035689;28;20036;-69
2023/04/29 07:25:19;;;;;;;14.32;10.02;;;11.40;99.90;;;;;;5035564;28;20076;-69
2023/04/29 07:27:45;;;;;;;15.80;9.27;;;11.50;99.90;;;;;;5035849;28;20049;-70
2023/04/29 07:30:10;;;;;;;14.98;9.30;;;11.40;99.90;;;;;;5035571;28;20462;-70
2023/04/29 07:32:36;;;;;;;12.65;8.70;;;11.50;99.90;;;;;;5035779;28;20037;-70
2023/04/29 07:35:02;;;;;;;19.42;9.05;;;11.50;99.90;;;;;;5035371;28;20563;-70
2023/04/29 07:37:28;;;;;;;13.18;8.95;;;11.60;99.90;;;;;;5035550;28;20049;-70
2023/04/29 07:39:53;;;;;;;12.75;8.80;;;11.60;99.90;;;;;;5035337;28;20424;-69
2023/04/29 07:42:19;;;;;;;13.05;8.48;;;11.70;99.90;;;;;;5035277;28;20076;-70
2023/04/29 07:44:45;;;;;;;16.13;8.88;;;11.70;99.90;;;;;;5035343;28;20059;-69
2023/04/29 07:47:11;;;;;;;13.35;8.65;;;11.80;99.90;;;;;;5035115;28;20124;-70
2023/04/29 07:49:37;;;;;;;15.68;9.13;;;11.90;99.90;;;;;;5035212;28;20409;-70
2023/04/29 07:52:08;;;;;;;11.73;8.63;;;11.90;99.90;;;;;;5035134;28;20480;-70
2023/04/29 07:54:37;;;;;;;15.75;8.85;;;12.00;99.90;;;;;;5018687;28;20083;-70
2023/04/29 07:57:03;;;;;;;12.95;8.15;;;12.10;99.90;;;;;;5035071;28;20045;-69
2023/04/29 07:59:29;;;;;;;11.18;8.20;;;12.20;99.90;;;;;;5035125;28;20033;-69
2023/04/29 08:01:56;;;;;;;13.20;8.20;;;12.30;99.90;;;;;;5035295;28;20033;-69
2023/04/29 08:04:22;;;;;;;13.23;8.95;;;12.40;99.90;;;;;;5035120;28;20048;-70
2023/04/29 08:06:48;;;;;;;15.07;8.70;;;12.50;99.90;;;;;;5035152;28;20040;-70
2023/04/29 08:09:14;;;;;;;12.43;8.95;;;12.60;99.90;;;;;;5035567;28;20036;-70
2023/04/29 08:11:40;;;;;;;11.55;8.27;;;12.60;99.90;;;;;;5035179;28;20053;-70
2023/04/29 08:14:06;;;;;;;11.63;9.13;;;12.70;99.90;;;;;;5018513;28;20036;-70
2023/04/29 08:16:31;;;;;;;12.68;8.75;;;12.80;99.90;;;;;;5034902;28;20044;-70
2023/04/29 08:18:57;;;;;;;13.88;8.38;;;12.80;99.90;;;;;;5018598;28;20045;-70
2023/04/29 08:21:23;;;;;;;11.30;8.25;;;12.80;99.90;;;;;;5035227;28;20075;-70
2023/04/29 08:23:48;;;;;;;13.45;8.60;;;12.70;99.90;;;;;;5034898;28;20494;-70
2023/04/29 08:26:14;;;;;;;12.77;8.43;;;12.80;99.90;;;;;;5034861;28;20120;-70
2023/04/29 08:28:40;;;;;;;15.35;8.23;;;12.90;99.90;;;;;;5035095;28;20098;-70
2023/04/29 08:31:06;;;;;;;17.58;8.40;;;13.00;99.90;;;;;;5034821;28;20037;-70
2023/04/29 08:33:38;;;;;;;13.63;8.02;;;13.20;99.90;;;;;;5034757;28;20045;-69
2023/04/29 08:36:04;;;;;;;12.57;7.75;;;13.40;99.90;;;;;;5034840;28;20052;-69
2023/04/29 08:38:29;;;;;;;12.98;7.88;;;13.50;99.90;;;;;;5034704;28;20040;-69
2023/04/29 08:40:55;;;;;;;12.35;8.38;;;13.70;99.90;;;;;;5034726;28;20041;-69
2023/04/29 08:43:21;;;;;;;10.00;6.95;;;13.90;99.90;;;;;;5034713;28;20037;-69
2023/04/29 08:45:48;;;;;;;13.05;7.55;;;14.10;99.90;;;;;;5034617;28;20548;-69
2023/04/29 08:48:15;;;;;;;13.52;7.60;;;14.30;99.90;;;;;;5034692;28;20072;-70
2023/04/29 08:50:41;;;;;;;14.30;7.55;;;14.50;99.90;;;;;;5035752;28;20079;-70
2023/04/29 08:53:08;;;;;;;12.23;6.50;;;14.70;99.90;;;;;;5034527;28;20401;-69
2023/04/29 08:55:46;;;;;;;10.23;6.90;;;14.90;99.90;;;;;;5034513;28;20454;-69
2023/04/29 08:58:14;;;;;;;13.68;6.57;;;15.00;99.90;;;;;;5034520;28;20600;-69
2023/04/29 09:00:41;;;;;;;13.23;6.80;;;15.10;99.90;;;;;;5036817;28;20119;-69
2023/04/29 09:03:23;;;;;;;11.65;6.25;;;15.20;99.90;;;;;;5038239;28;20041;-69
2023/04/29 09:05:53;;;;;;;9.85;5.90;;;15.40;99.90;;;;;;5038206;28;20584;-70
2023/04/29 09:08:21;;;;;;;11.30;6.05;;;15.50;99.90;;;;;;5038052;28;20052;-69
2023/04/29 09:10:47;;;;;;;11.00;6.00;;;15.50;99.90;;;;;;5038047;28;20044;-70
2023/04/29 09:13:42;;;;;;;14.13;6.05;;;15.60;99.90;;;;;;5038122;28;20036;-70
2023/04/29 09:16:11;;;;;;;13.43;6.45;;;15.60;97.50;;;;;;5021637;28;20144;-70
2023/04/29 09:18:43;;;;;;;13.77;6.35;;;15.40;98.70;;;;;;5037927;28;20037;-70
2023/04/29 09:21:17;;;;;;;11.00;6.22;;;15.20;97.90;;;;;;5037892;28;20108;-71
2023/04/29 09:23:43;;;;;;;10.43;6.28;;;15.30;98.90;;;;;;5037873;28;20098;-70
2023/04/29 09:26:09;;;;;;;10.63;6.40;;;15.30;98.60;;;;;;5038116;28;20044;-71
2023/04/29 09:28:34;;;;;;;10.25;6.05;;;15.30;98.10;;;;;;5037740;28;20382;-71
2023/04/29 09:31:05;;;;;;;13.93;6.82;;;15.40;97.60;;;;;;5037757;28;20040;-71
2023/04/29 09:33:31;;;;;;;10.07;5.53;;;15.50;97.00;;;;;;5037646;28;20052;-70
2023/04/29 09:35:57;;;;;;;8.52;5.35;;;15.60;96.80;;;;;;5037932;28;20059;-70
2023/04/29 09:38:23;;;;;;;8.98;5.55;;;15.80;97.20;;;;;;5037455;28;20424;-70
2023/04/29 09:40:50;;;;;;;11.35;5.70;;;15.80;96.50;;;;;;5037760;28;20091;-70
2023/04/29 09:43:17;;;;;;;10.48;5.90;;;15.70;95.50;;;;;;5037452;28;20048;-71
2023/04/29 09:45:47;;;;;;;9.75;5.82;;;15.70;95.40;;;;;;5037323;28;20044;-71
2023/04/29 09:48:14;;;;;;;8.75;5.75;;;15.70;94.70;;;;;;5037376;28;20036;-71
2023/04/29 09:50:42;;;;;;;9.10;6.35;;;15.80;94.70;;;;;;5037343;28;20497;-71
2023/04/29 09:53:10;;;;;;;11.07;5.90;;;15.90;93.90;;;;;;5037710;28;20131;-71
2023/04/29 09:55:56;;;;;;;9.27;5.75;;;16.20;93.60;;;;;;5037181;28;20539;-71
2023/04/29 09:58:36;;;;;;;7.18;4.95;;;16.30;93.20;;;;;;5054893;28;20041;-71
2023/04/29 10:01:02;;;;;;;10.63;6.40;;;16.50;93.10;;;;;;5037480;28;20045;-71
2023/04/29 10:03:38;;;;;;;9.07;5.90;;;16.70;92.50;;;;;;5037111;28;20090;-70
2023/04/29 10:06:06;;;;;;;9.50;5.63;;;16.90;90.90;;;;;;5037057;28;20511;-70
2023/04/29 10:08:34;;;;;;;9.27;5.85;;;16.90;90.40;;;;;;5020736;28;20037;-71
2023/04/29 10:11:04;;;;;;;9.50;6.05;;;17.10;89.50;;;;;;5036780;28;20048;-71
2023/04/29 10:13:32;;;;;;;10.88;5.80;;;17.10;88.30;;;;;;5037093;28;20044;-70
2023/04/29 10:16:10;;;;;;;8.57;5.70;;;17.10;86.40;;;;;;5037153;28;20513;-71
2023/04/29 10:18:39;;;;;;;9.75;5.40;;;17.30;83.10;;;;;;5054684;28;20043;-71
2023/04/29 10:21:08;;;;;;;11.63;6.22;;;17.40;83.20;;;;;;5037042;28;20106;-71
2023/04/29 10:23:35;;;;;;;9.88;5.72;;;17.60;82.60;;;;;;5036623;28;20036;-70
2023/04/29 10:26:02;;;;;;;10.20;5.00;;;17.70;81.00;;;;;;5036674;28;20049;-70
2023/04/29 10:28:31;;;;;;;10.80;5.40;;;17.80;79.70;;;;;;5036490;28;20465;-70
2023/04/29 10:31:00;;;;;;;9.25;4.80;;;18.00;79.20;;;;;;5036606;28;20045;-71
2023/04/29 10:33:26;;;;;;;9.38;5.53;;;18.10;77.90;;;;;;5036721;28;20114;-71
2023/04/29 10:35:54;;;;;;;10.18;5.18;;;18.30;75.50;;;;;;5036756;28;20052;-71
2023/04/29 10:38:32;;;;;;;10.05;4.80;;;18.60;75.10;;;;;;5036650;28;20049;-71
2023/04/29 10:41:02;;;;;;;8.55;4.55;;;18.80;73.50;;;;;;5036606;28;20045;-70
2023/04/29 10:43:28;;;;;;;8.93;4.47;;;18.90;71.70;;;;;;5054797;28;20044;-70
2023/04/29 10:46:19;;;;;;;8.27;4.38;;;19.00;71.20;;;;;;5036212;28;20048;-70
2023/04/29 10:48:54;;;;;;;8.00;4.50;;;19.10;68.80;;;;;;5027701;28;20130;-71
2023/04/29 10:51:38;;;;;;;9.35;4.15;;;19.10;67.70;;;;;;5036289;28;20094;-71
2023/04/29 10:54:07;;;;;;;8.77;4.28;;;19.10;64.60;;;;;;5053961;28;20551;-70
2023/04/29 10:56:38;;;;;;;8.85;4.15;;;19.20;67.10;;;;;;5036053;28;20045;-71
2023/04/29 10:59:05;;;;;;;7.70;4.07;;;19.30;67.20;;;;;;5036000;28;20464;-71
2023/04/29 11:01:47;;;;;;;6.55;3.80;;;19.50;67.00;;;;;;5036053;28;20037;-71
2023/04/29 11:04:13;;;;;;;8.82;4.60;;;19.60;66.90;;;;;;5035935;28;20512;-71
2023/04/29 11:06:46;;;;;;;8.00;4.40;;;19.70;67.10;;;;;;5036150;28;20040;-71
2023/04/29 11:09:20;;;;;;;6.53;4.18;;;19.90;65.00;;;;;;5019326;28;20044;-71
2023/04/29 11:11:56;;;;;;;7.30;4.32;;;19.90;64.50;;;;;;5035833;28;20049;-71
2023/04/29 11:14:37;;;;;;;10.38;4.25;;;19.90;65.20;;;;;;5035741;28;20070;-71
2023/04/29 11:17:07;;;;;;;6.68;3.67;;;19.90;62.90;;;;;;5035638;28;20075;-70
2023/04/29 11:19:33;;;;;;;7.22;3.95;;;19.90;63.90;;;;;;5053538;28;20045;-70
2023/04/29 11:22:17;;;;;;;7.30;4.28;;;20.00;64.60;;;;;;5035288;28;20052;-70
2023/04/29 11:24:56;;;;;;;6.47;3.92;;;20.10;62.90;;;;;;5035834;28;20055;-70
2023/04/29 11:27:33;;;;;;;6.32;3.15;;;20.20;62.50;;;;;;5035726;28;20131;-70
2023/04/29 11:30:00;;;;;;;5.45;2.90;;;20.20;61.40;;;;;;5035536;28;20032;-70
2023/04/29 11:32:33;;;;;;;8.27;3.00;;;20.20;61.80;;;;;;5035749;28;20075;-70
2023/04/29 11:35:13;;;;;;;10.88;3.45;;;20.30;61.60;;;;;;5035552;28;20041;-71
2023/04/29 11:37:40;;;;;;;9.55;3.15;;;20.30;61.80;;;;;;5035424;28;20037;-71
2023/04/29 11:40:06;;;;;;;6.63;3.65;;;20.50;62.90;;;;;;5035406;28;20041;-71
2023/04/29 11:42:41;;;;;;;6.00;2.90;;;20.50;61.20;;;;;;5035369;28;20075;-71
2023/04/29 11:45:07;;;;;;;7.10;3.40;;;20.60;61.10;;;;;;5035437;28;20446;-71
2023/04/29 11:47:32;;;;;;;7.07;2.90;;;20.70;61.20;;;;;;5035388;28;20063;-71
2023/04/29 11:50:09;;;;;;;8.80;3.15;;;20.80;59.40;;;;;;5053337;28;20519;-71
2023/04/29 11:52:36;;;;;;;7.50;2.90;;;20.80;58.50;;;;;;5035198;28;20089;-69
2023/04/29 11:55:04;;;;;;;6.22;3.33;;;20.90;60.30;;;;;;5035153;28;20044;-69
2023/04/29 11:57:30;;;;;;;8.68;3.67;;;20.90;59.90;;;;;;5035072;28;20056;-69
2023/04/29 11:59:57;;;;;;;7.65;3.08;;;21.00;60.60;;;;;;5035162;28;20041;-69
2023/04/29 12:02:31;;;;;;;6.90;3.72;;;21.20;59.80;;;;;;5035172;28;20037;-69
2023/04/29 12:04:57;;;;;;;6.30;3.35;;;21.30;59.40;;;;;;5035157;28;20070;-69
2023/04/29 12:07:23;;;;;;;7.93;3.63;;;21.30;59.20;;;;;;5052889;28;20059;-68
2023/04/29 12:09:49;;;;;;;7.90;3.38;;;21.40;60.50;;;;;;5035063;28;20438;-69
2023/04/29 12:12:15;;;;;;;10.27;3.40;;;21.30;59.80;;;;;;5035131;28;20037;-69
2023/04/29 12:14:41;;;;;;;6.20;3.20;;;21.20;60.70;;;;;;5034987;28;20049;-69
2023/04/29 12:17:08;;;;;;;12.38;3.40;;;21.30;59.00;;;;;;5053145;28;20037;-69
2023/04/29 12:19:38;;;;;;;7.13;2.55;;;21.40;58.80;;;;;;5034990;28;20433;-69
2023/04/29 12:22:04;;;;;;;6.65;2.97;;;21.50;58.10;;;;;;5053067;28;20073;-69
2023/04/29 12:24:35;;;;;;;7.60;2.63;;;21.50;57.70;;;;;;5052791;28;20045;-69
2023/04/29 12:27:01;;;;;;;5.97;2.42;;;21.60;56.40;;;;;;5034852;28;20449;-69
2023/04/29 12:29:27;;;;;;;5.28;2.45;;;21.70;57.40;;;;;;5035146;28;20083;-69
2023/04/29 12:31:54;;;;;;;5.53;2.35;;;21.80;56.20;;;;;;5018470;28;20409;-69
2023/04/29 12:34:30;;;;;;;5.03;2.30;;;21.90;55.70;;;;;;5034943;28;20045;-69
2023/04/29 12:36:59;;;;;;;7.82;2.17;;;21.80;52.90;;;;;;5039718;28;20102;-68
2023/04/29 12:39:25;;;;;;;5.10;1.85;;;21.70;54.70;;;;;;5039017;28;20060;-69
2023/04/29 12:41:57;;;;;;;5.15;2.00;;;21.70;55.00;;;;;;5038910;28;20111;-69